sensor_id;sensor_type;location;lat;lon;timestamp;temperature;humidity
39925;DHT22;25592;49.986;11.618;2023-09-19T00:02:38;19.60;95.40
39925;DHT22;25592;49.986;11.618;2023-09-19T00:05:25;19.60;95.60
39925;DHT22;25592;49.986;11.618;2023-09-19T00:08:13;19.60;95.50
39925;DHT22;25592;49.986;11.618;2023-09-19T00:10:59;19.60;95.50
39925;DHT22;25592;49.986;11.618;2023-09-19T00:13:50;19.70;95.20
39925;DHT22;25592;49.986;11.618;2023-09-19T00:16:36;19.60;95.20
39925;DHT22;25592;49.986;11.618;2023-09-19T00:19:22;19.70;95.00
39925;DHT22;25592;49.986;11.618;2023-09-19T00:22:09;19.70;95.20
39925;DHT22;25592;49.986;11.618;2023-09-19T00:24:55;19.80;94.70
39925;DHT22;25592;49.986;11.618;2023-09-19T00:27:41;19.70;95.00
39925;DHT22;25592;49.986;11.618;2023-09-19T00:30:27;19.70;95.00
39925;DHT22;25592;49.986;11.618;2023-09-19T00:33:12;19.70;95.20
39925;DHT22;25592;49.986;11.618;2023-09-19T00:36:01;19.70;95.00
39925;DHT22;25592;49.986;11.618;2023-09-19T00:38:50;19.50;95.50
39925;DHT22;25592;49.986;11.618;2023-09-19T00:41:35;19.60;95.20
39925;DHT22;25592;49.986;11.618;2023-09-19T00:44:22;19.60;95.30
39925;DHT22;25592;49.986;11.618;2023-09-19T00:47:08;19.50;95.20
39925;DHT22;25592;49.986;11.618;2023-09-19T00:49:55;19.50;95.50
39925;DHT22;25592;49.986;11.618;2023-09-19T00:52:42;19.50;95.40
39925;DHT22;25592;49.986;11.618;2023-09-19T00:55:29;19.50;95.30
39925;DHT22;25592;49.986;11.618;2023-09-19T00:58:17;19.50;95.30
39925;DHT22;25592;49.986;11.618;2023-09-19T01:01:04;19.40;95.40
39925;DHT22;25592;49.986;11.618;2023-09-19T01:03:52;19.40;95.50
39925;DHT22;25592;49.986;11.618;2023-09-19T01:06:38;19.40;95.40
39925;DHT22;25592;49.986;11.618;2023-09-19T01:09:24;19.40;95.50
39925;DHT22;25592;49.986;11.618;2023-09-19T01:12:12;19.40;95.40
39925;DHT22;25592;49.986;11.618;2023-09-19T01:15:15;19.40;95.40
39925;DHT22;25592;49.986;11.618;2023-09-19T01:21:26;19.40;95.30
39925;DHT22;25592;49.986;11.618;2023-09-19T01:30:27;19.40;95.20
39925;DHT22;25592;49.986;11.618;2023-09-19T01:33:17;19.30;95.20
39925;DHT22;25592;49.986;11.618;2023-09-19T01:36:03;19.20;95.20
39925;DHT22;25592;49.986;11.618;2023-09-19T01:38:48;19.20;95.30
39925;DHT22;25592;49.986;11.618;2023-09-19T01:45:17;19.20;95.40
39925;DHT22;25592;49.986;11.618;2023-09-19T01:48:35;19.30;95.30
39925;DHT22;25592;49.986;11.618;2023-09-19T01:51:34;19.10;95.40
39925;DHT22;25592;49.986;11.618;2023-09-19T01:54:26;19.20;95.20
39925;DHT22;25592;49.986;11.618;2023-09-19T01:57:40;19.30;94.90
39925;DHT22;25592;49.986;11.618;2023-09-19T02:00:29;19.40;94.60
39925;DHT22;25592;49.986;11.618;2023-09-19T02:03:18;19.40;94.90
39925;DHT22;25592;49.986;11.618;2023-09-19T02:06:07;19.40;94.60
39925;DHT22;25592;49.986;11.618;2023-09-19T02:08:56;19.40;94.40
39925;DHT22;25592;49.986;11.618;2023-09-19T02:11:42;19.40;94.50
39925;DHT22;25592;49.986;11.618;2023-09-19T02:14:27;19.40;94.70
39925;DHT22;25592;49.986;11.618;2023-09-19T02:17:14;19.30;94.80
39925;DHT22;25592;49.986;11.618;2023-09-19T02:20:00;19.30;94.90
39925;DHT22;25592;49.986;11.618;2023-09-19T02:22:45;19.30;94.80
39925;DHT22;25592;49.986;11.618;2023-09-19T02:25:31;19.40;94.60
39925;DHT22;25592;49.986;11.618;2023-09-19T02:28:17;19.40;94.90
39925;DHT22;25592;49.986;11.618;2023-09-19T02:31:02;19.30;95.00
39925;DHT22;25592;49.986;11.618;2023-09-19T02:33:50;19.30;94.90
39925;DHT22;25592;49.986;11.618;2023-09-19T02:36:36;19.40;94.70
39925;DHT22;25592;49.986;11.618;2023-09-19T02:39:22;19.40;94.90
39925;DHT22;25592;49.986;11.618;2023-09-19T02:42:08;19.40;95.10
39925;DHT22;25592;49.986;11.618;2023-09-19T02:44:54;19.40;95.00
39925;DHT22;25592;49.986;11.618;2023-09-19T02:47:42;19.30;94.90
39925;DHT22;25592;49.986;11.618;2023-09-19T02:50:28;19.30;95.00
39925;DHT22;25592;49.986;11.618;2023-09-19T02:53:13;19.30;95.30
39925;DHT22;25592;49.986;11.618;2023-09-19T02:56:00;19.30;95.00
39925;DHT22;25592;49.986;11.618;2023-09-19T02:58:46;19.40;95.00
39925;DHT22;25592;49.986;11.618;2023-09-19T03:01:33;19.40;95.00
39925;DHT22;25592;49.986;11.618;2023-09-19T03:04:19;19.20;95.10
39925;DHT22;25592;49.986;11.618;2023-09-19T03:07:05;19.30;95.10
39925;DHT22;25592;49.986;11.618;2023-09-19T03:09:51;19.30;95.20
39925;DHT22;25592;49.986;11.618;2023-09-19T03:12:38;19.30;95.10
39925;DHT22;25592;49.986;11.618;2023-09-19T03:15:25;19.40;95.10
39925;DHT22;25592;49.986;11.618;2023-09-19T03:18:10;19.40;95.10
39925;DHT22;25592;49.986;11.618;2023-09-19T03:20:56;19.40;95.10
39925;DHT22;25592;49.986;11.618;2023-09-19T03:23:42;19.40;95.10
39925;DHT22;25592;49.986;11.618;2023-09-19T03:26:28;19.30;95.10
39925;DHT22;25592;49.986;11.618;2023-09-19T03:29:14;19.30;95.20
39925;DHT22;25592;49.986;11.618;2023-09-19T03:32:00;19.30;95.30
39925;DHT22;25592;49.986;11.618;2023-09-19T03:34:47;19.30;95.30
39925;DHT22;25592;49.986;11.618;2023-09-19T03:37:33;19.30;95.10
39925;DHT22;25592;49.986;11.618;2023-09-19T03:40:19;19.30;95.20
39925;DHT22;25592;49.986;11.618;2023-09-19T03:43:07;19.20;95.20
39925;DHT22;25592;49.986;11.618;2023-09-19T03:45:53;19.20;95.20
39925;DHT22;25592;49.986;11.618;2023-09-19T03:48:39;19.00;95.50
39925;DHT22;25592;49.986;11.618;2023-09-19T03:51:25;19.00;95.50
39925;DHT22;25592;49.986;11.618;2023-09-19T03:54:10;18.90;95.70
39925;DHT22;25592;49.986;11.618;2023-09-19T03:56:56;18.90;95.90
39925;DHT22;25592;49.986;11.618;2023-09-19T03:59:41;18.80;95.80
39925;DHT22;25592;49.986;11.618;2023-09-19T04:02:27;18.80;95.90
39925;DHT22;25592;49.986;11.618;2023-09-19T04:05:18;18.80;96.00
39925;DHT22;25592;49.986;11.618;2023-09-19T04:08:04;18.80;96.00
39925;DHT22;25592;49.986;11.618;2023-09-19T04:10:49;18.70;96.10
39925;DHT22;25592;49.986;11.618;2023-09-19T04:13:35;18.50;96.20
39925;DHT22;25592;49.986;11.618;2023-09-19T04:16:20;18.50;96.30
39925;DHT22;25592;49.986;11.618;2023-09-19T04:19:06;18.60;96.50
39925;DHT22;25592;49.986;11.618;2023-09-19T04:21:51;18.50;96.50
39925;DHT22;25592;49.986;11.618;2023-09-19T04:24:37;18.50;96.50
39925;DHT22;25592;49.986;11.618;2023-09-19T04:27:23;18.50;96.40
39925;DHT22;25592;49.986;11.618;2023-09-19T04:30:08;18.50;96.60
39925;DHT22;25592;49.986;11.618;2023-09-19T04:32:56;18.50;96.60
39925;DHT22;25592;49.986;11.618;2023-09-19T04:35:42;18.50;96.60
39925;DHT22;25592;49.986;11.618;2023-09-19T04:38:27;18.50;96.70
39925;DHT22;25592;49.986;11.618;2023-09-19T04:41:14;18.50;96.60
39925;DHT22;25592;49.986;11.618;2023-09-19T04:44:00;18.40;96.80
39925;DHT22;25592;49.986;11.618;2023-09-19T04:46:46;18.40;96.80
39925;DHT22;25592;49.986;11.618;2023-09-19T04:49:31;18.40;96.80
39925;DHT22;25592;49.986;11.618;2023-09-19T04:52:17;18.50;96.70
39925;DHT22;25592;49.986;11.618;2023-09-19T04:55:02;18.50;96.50
39925;DHT22;25592;49.986;11.618;2023-09-19T04:57:50;18.60;96.50
39925;DHT22;25592;49.986;11.618;2023-09-19T05:00:35;18.70;96.40
39925;DHT22;25592;49.986;11.618;2023-09-19T05:03:20;18.50;96.60
39925;DHT22;25592;49.986;11.618;2023-09-19T05:06:07;18.50;96.70
39925;DHT22;25592;49.986;11.618;2023-09-19T05:08:52;18.60;96.70
39925;DHT22;25592;49.986;11.618;2023-09-19T05:11:38;18.50;96.70
39925;DHT22;25592;49.986;11.618;2023-09-19T05:14:24;18.60;96.70
39925;DHT22;25592;49.986;11.618;2023-09-19T05:17:09;18.70;96.60
39925;DHT22;25592;49.986;11.618;2023-09-19T05:19:55;18.70;96.60
39925;DHT22;25592;49.986;11.618;2023-09-19T05:22:43;18.70;96.70
39925;DHT22;25592;49.986;11.618;2023-09-19T05:25:32;18.60;96.70
39925;DHT22;25592;49.986;11.618;2023-09-19T05:28:18;18.60;96.90
39925;DHT22;25592;49.986;11.618;2023-09-19T05:31:03;18.50;96.90
39925;DHT22;25592;49.986;11.618;2023-09-19T05:33:49;18.60;96.90
39925;DHT22;25592;49.986;11.618;2023-09-19T05:36:35;18.60;96.90
39925;DHT22;25592;49.986;11.618;2023-09-19T05:39:20;18.50;97.00
39925;DHT22;25592;49.986;11.618;2023-09-19T05:42:06;18.50;97.10
39925;DHT22;25592;49.986;11.618;2023-09-19T05:44:53;18.50;97.10
39925;DHT22;25592;49.986;11.618;2023-09-19T05:47:41;18.60;96.90
39925;DHT22;25592;49.986;11.618;2023-09-19T05:50:28;18.70;96.80
39925;DHT22;25592;49.986;11.618;2023-09-19T05:53:14;18.70;96.70
39925;DHT22;25592;49.986;11.618;2023-09-19T05:56:00;18.70;96.80
39925;DHT22;25592;49.986;11.618;2023-09-19T05:58:46;18.60;97.00
39925;DHT22;25592;49.986;11.618;2023-09-19T06:01:31;18.60;96.80
39925;DHT22;25592;49.986;11.618;2023-09-19T06:04:20;18.60;96.90
39925;DHT22;25592;49.986;11.618;2023-09-19T06:07:06;18.50;96.90
39925;DHT22;25592;49.986;11.618;2023-09-19T06:09:52;18.60;96.90
39925;DHT22;25592;49.986;11.618;2023-09-19T06:12:39;18.70;96.80
39925;DHT22;25592;49.986;11.618;2023-09-19T06:15:24;18.80;96.80
39925;DHT22;25592;49.986;11.618;2023-09-19T06:18:11;18.60;96.80
39925;DHT22;25592;49.986;11.618;2023-09-19T06:21:02;18.60;97.00
39925;DHT22;25592;49.986;11.618;2023-09-19T06:23:53;18.50;96.90
39925;DHT22;25592;49.986;11.618;2023-09-19T06:26:38;18.60;97.00
39925;DHT22;25592;49.986;11.618;2023-09-19T06:29:24;18.50;96.80
39925;DHT22;25592;49.986;11.618;2023-09-19T06:32:10;18.50;97.00
39925;DHT22;25592;49.986;11.618;2023-09-19T06:34:56;18.50;97.10
39925;DHT22;25592;49.986;11.618;2023-09-19T06:37:44;18.50;97.20
39925;DHT22;25592;49.986;11.618;2023-09-19T06:40:29;18.50;97.10
39925;DHT22;25592;49.986;11.618;2023-09-19T06:43:16;18.60;97.00
39925;DHT22;25592;49.986;11.618;2023-09-19T06:46:02;18.60;96.90
39925;DHT22;25592;49.986;11.618;2023-09-19T06:48:48;18.60;96.90
39925;DHT22;25592;49.986;11.618;2023-09-19T06:51:34;18.50;97.00
39925;DHT22;25592;49.986;11.618;2023-09-19T06:54:20;18.60;97.00
39925;DHT22;25592;49.986;11.618;2023-09-19T06:57:05;18.70;97.00
39925;DHT22;25592;49.986;11.618;2023-09-19T06:59:54;18.80;96.90
39925;DHT22;25592;49.986;11.618;2023-09-19T07:02:40;18.70;96.80
39925;DHT22;25592;49.986;11.618;2023-09-19T07:05:33;18.90;96.70
39925;DHT22;25592;49.986;11.618;2023-09-19T07:08:24;18.90;96.80
39925;DHT22;25592;49.986;11.618;2023-09-19T07:11:10;18.80;96.80
39925;DHT22;25592;49.986;11.618;2023-09-19T07:13:57;18.90;96.20
39925;DHT22;25592;49.986;11.618;2023-09-19T07:16:43;18.90;95.80
39925;DHT22;25592;49.986;11.618;2023-09-19T07:19:30;18.80;95.40
39925;DHT22;25592;49.986;11.618;2023-09-19T07:22:16;18.80;95.60
39925;DHT22;25592;49.986;11.618;2023-09-19T07:25:02;18.70;95.40
39925;DHT22;25592;49.986;11.618;2023-09-19T07:27:47;18.90;95.60
39925;DHT22;25592;49.986;11.618;2023-09-19T07:30:36;19.00;95.40
39925;DHT22;25592;49.986;11.618;2023-09-19T07:33:22;18.90;94.70
39925;DHT22;25592;49.986;11.618;2023-09-19T07:36:11;18.90;95.00
39925;DHT22;25592;49.986;11.618;2023-09-19T07:38:58;19.00;94.80
39925;DHT22;25592;49.986;11.618;2023-09-19T07:42:04;19.00;94.40
39925;DHT22;25592;49.986;11.618;2023-09-19T07:44:52;19.00;94.00
39925;DHT22;25592;49.986;11.618;2023-09-19T07:47:38;19.10;94.00
39925;DHT22;25592;49.986;11.618;2023-09-19T07:50:24;19.10;94.10
39925;DHT22;25592;49.986;11.618;2023-09-19T07:53:11;19.20;93.50
39925;DHT22;25592;49.986;11.618;2023-09-19T07:56:06;19.30;92.30
39925;DHT22;25592;49.986;11.618;2023-09-19T07:58:52;19.40;92.20
39925;DHT22;25592;49.986;11.618;2023-09-19T08:01:38;19.50;92.50
39925;DHT22;25592;49.986;11.618;2023-09-19T08:04:25;19.40;91.90
39925;DHT22;25592;49.986;11.618;2023-09-19T08:07:12;19.40;92.30
39925;DHT22;25592;49.986;11.618;2023-09-19T08:09:58;19.20;92.20
39925;DHT22;25592;49.986;11.618;2023-09-19T08:12:44;19.10;92.10
39925;DHT22;25592;49.986;11.618;2023-09-19T08:15:32;19.00;92.30
39925;DHT22;25592;49.986;11.618;2023-09-19T08:18:19;19.00;91.90
39925;DHT22;25592;49.986;11.618;2023-09-19T08:21:07;19.10;91.90
39925;DHT22;25592;49.986;11.618;2023-09-19T08:23:55;19.10;91.90
39925;DHT22;25592;49.986;11.618;2023-09-19T08:26:41;19.00;91.70
39925;DHT22;25592;49.986;11.618;2023-09-19T08:29:27;18.90;91.20
39925;DHT22;25592;49.986;11.618;2023-09-19T08:32:13;18.90;91.30
39925;DHT22;25592;49.986;11.618;2023-09-19T08:34:59;18.90;91.30
39925;DHT22;25592;49.986;11.618;2023-09-19T08:37:45;18.80;91.20
39925;DHT22;25592;49.986;11.618;2023-09-19T08:40:31;18.80;91.70
39925;DHT22;25592;49.986;11.618;2023-09-19T08:43:21;18.90;91.90
39925;DHT22;25592;49.986;11.618;2023-09-19T08:46:16;19.10;91.70
39925;DHT22;25592;49.986;11.618;2023-09-19T08:49:08;19.10;91.80
39925;DHT22;25592;49.986;11.618;2023-09-19T08:52:10;19.20;91.70
39925;DHT22;25592;49.986;11.618;2023-09-19T08:54:59;19.30;91.90
39925;DHT22;25592;49.986;11.618;2023-09-19T08:57:49;19.40;91.70
39925;DHT22;25592;49.986;11.618;2023-09-19T09:00:35;19.40;92.00
39925;DHT22;25592;49.986;11.618;2023-09-19T09:03:21;19.50;91.60
39925;DHT22;25592;49.986;11.618;2023-09-19T09:06:08;19.90;91.40
39925;DHT22;25592;49.986;11.618;2023-09-19T09:08:59;20.00;91.20
39925;DHT22;25592;49.986;11.618;2023-09-19T09:11:44;20.20;91.20
39925;DHT22;25592;49.986;11.618;2023-09-19T09:14:30;20.20;89.80
39925;DHT22;25592;49.986;11.618;2023-09-19T09:17:16;20.10;90.10
39925;DHT22;25592;49.986;11.618;2023-09-19T09:20:06;20.00;89.90
39925;DHT22;25592;49.986;11.618;2023-09-19T09:22:57;20.00;90.00
39925;DHT22;25592;49.986;11.618;2023-09-19T09:25:54;20.00;90.20
39925;DHT22;25592;49.986;11.618;2023-09-19T09:28:46;19.80;89.40
39925;DHT22;25592;49.986;11.618;2023-09-19T09:31:35;19.50;90.10
39925;DHT22;25592;49.986;11.618;2023-09-19T09:34:20;19.50;90.60
39925;DHT22;25592;49.986;11.618;2023-09-19T09:37:06;19.80;90.80
39925;DHT22;25592;49.986;11.618;2023-09-19T09:39:54;19.90;90.50
39925;DHT22;25592;49.986;11.618;2023-09-19T09:42:41;20.20;90.30
39925;DHT22;25592;49.986;11.618;2023-09-19T09:45:31;20.20;90.00
39925;DHT22;25592;49.986;11.618;2023-09-19T09:48:24;20.30;89.50
39925;DHT22;25592;49.986;11.618;2023-09-19T09:51:29;20.40;90.20
39925;DHT22;25592;49.986;11.618;2023-09-19T09:54:16;20.20;89.20
39925;DHT22;25592;49.986;11.618;2023-09-19T09:57:07;20.20;88.20
39925;DHT22;25592;49.986;11.618;2023-09-19T10:00:00;20.30;88.70
39925;DHT22;25592;49.986;11.618;2023-09-19T10:02:57;20.20;89.10
39925;DHT22;25592;49.986;11.618;2023-09-19T10:05:44;20.20;88.40
39925;DHT22;25592;49.986;11.618;2023-09-19T10:08:30;20.20;88.70
39925;DHT22;25592;49.986;11.618;2023-09-19T10:11:16;20.40;89.10
39925;DHT22;25592;49.986;11.618;2023-09-19T10:14:03;20.70;88.60
39925;DHT22;25592;49.986;11.618;2023-09-19T10:16:49;20.80;87.60
39925;DHT22;25592;49.986;11.618;2023-09-19T10:19:45;20.60;87.60
39925;DHT22;25592;49.986;11.618;2023-09-19T10:22:34;20.10;87.90
39925;DHT22;25592;49.986;11.618;2023-09-19T10:25:20;20.10;87.40
39925;DHT22;25592;49.986;11.618;2023-09-19T10:28:12;20.40;88.70
39925;DHT22;25592;49.986;11.618;2023-09-19T10:31:00;19.90;87.80
39925;DHT22;25592;49.986;11.618;2023-09-19T10:33:46;19.90;88.70
39925;DHT22;25592;49.986;11.618;2023-09-19T10:36:34;20.00;88.50
39925;DHT22;25592;49.986;11.618;2023-09-19T10:39:21;20.00;88.80
39925;DHT22;25592;49.986;11.618;2023-09-19T10:42:11;20.10;89.20
39925;DHT22;25592;49.986;11.618;2023-09-19T10:45:04;20.20;88.70
39925;DHT22;25592;49.986;11.618;2023-09-19T10:47:53;20.40;88.40
39925;DHT22;25592;49.986;11.618;2023-09-19T10:50:49;20.40;89.10
39925;DHT22;25592;49.986;11.618;2023-09-19T10:56:33;20.30;88.10
39925;DHT22;25592;49.986;11.618;2023-09-19T10:59:24;20.40;88.40
39925;DHT22;25592;49.986;11.618;2023-09-19T11:02:19;20.80;87.90
39925;DHT22;25592;49.986;11.618;2023-09-19T11:05:12;21.10;87.80
39925;DHT22;25592;49.986;11.618;2023-09-19T11:07:58;21.50;85.10
39925;DHT22;25592;49.986;11.618;2023-09-19T11:10:50;21.50;84.00
39925;DHT22;25592;49.986;11.618;2023-09-19T11:13:36;21.60;83.40
39925;DHT22;25592;49.986;11.618;2023-09-19T11:16:23;21.70;83.30
39925;DHT22;25592;49.986;11.618;2023-09-19T11:19:09;21.70;83.50
39925;DHT22;25592;49.986;11.618;2023-09-19T11:21:56;21.70;82.40
39925;DHT22;25592;49.986;11.618;2023-09-19T11:24:41;21.60;82.90
39925;DHT22;25592;49.986;11.618;2023-09-19T11:27:27;21.60;83.10
39925;DHT22;25592;49.986;11.618;2023-09-19T11:30:28;21.80;83.20
39925;DHT22;25592;49.986;11.618;2023-09-19T11:33:22;22.00;82.90
39925;DHT22;25592;49.986;11.618;2023-09-19T11:36:18;22.20;82.70
39925;DHT22;25592;49.986;11.618;2023-09-19T11:39:25;22.80;82.30
39925;DHT22;25592;49.986;11.618;2023-09-19T11:42:45;23.00;80.90
39925;DHT22;25592;49.986;11.618;2023-09-19T11:48:47;23.00;79.50
39925;DHT22;25592;49.986;11.618;2023-09-19T11:51:40;23.00;79.70
39925;DHT22;25592;49.986;11.618;2023-09-19T11:54:27;23.10;79.30
39925;DHT22;25592;49.986;11.618;2023-09-19T11:57:20;23.00;79.00
39925;DHT22;25592;49.986;11.618;2023-09-19T12:00:07;22.90;79.60
39925;DHT22;25592;49.986;11.618;2023-09-19T12:02:57;22.70;78.70
39925;DHT22;25592;49.986;11.618;2023-09-19T12:05:47;22.50;79.90
39925;DHT22;25592;49.986;11.618;2023-09-19T12:08:34;22.50;80.40
39925;DHT22;25592;49.986;11.618;2023-09-19T12:11:19;22.50;81.10
39925;DHT22;25592;49.986;11.618;2023-09-19T12:14:06;22.60;80.20
39925;DHT22;25592;49.986;11.618;2023-09-19T12:16:58;22.60;79.90
39925;DHT22;25592;49.986;11.618;2023-09-19T12:19:56;22.30;80.70
39925;DHT22;25592;49.986;11.618;2023-09-19T12:22:43;22.50;80.80
39925;DHT22;25592;49.986;11.618;2023-09-19T12:25:44;22.70;79.80
39925;DHT22;25592;49.986;11.618;2023-09-19T12:28:41;22.60;80.10
39925;DHT22;25592;49.986;11.618;2023-09-19T12:31:27;22.50;80.10
39925;DHT22;25592;49.986;11.618;2023-09-19T12:34:19;22.60;79.10
39925;DHT22;25592;49.986;11.618;2023-09-19T12:37:09;22.70;77.80
39925;DHT22;25592;49.986;11.618;2023-09-19T12:40:08;23.00;78.30
39925;DHT22;25592;49.986;11.618;2023-09-19T12:43:03;23.00;76.30
39925;DHT22;25592;49.986;11.618;2023-09-19T12:45:50;23.30;76.70
39925;DHT22;25592;49.986;11.618;2023-09-19T12:48:38;23.30;74.10
39925;DHT22;25592;49.986;11.618;2023-09-19T12:51:35;23.30;72.90
39925;DHT22;25592;49.986;11.618;2023-09-19T12:54:20;23.30;74.10
39925;DHT22;25592;49.986;11.618;2023-09-19T12:57:07;22.90;73.10
39925;DHT22;25592;49.986;11.618;2023-09-19T12:59:53;23.10;74.00
39925;DHT22;25592;49.986;11.618;2023-09-19T13:03:11;23.40;72.40
39925;DHT22;25592;49.986;11.618;2023-09-19T13:06:04;23.80;72.80
39925;DHT22;25592;49.986;11.618;2023-09-19T13:09:08;23.60;72.20
39925;DHT22;25592;49.986;11.618;2023-09-19T13:11:54;23.50;72.70
39925;DHT22;25592;49.986;11.618;2023-09-19T13:14:40;23.20;73.00
39925;DHT22;25592;49.986;11.618;2023-09-19T13:17:42;23.40;72.20
39925;DHT22;25592;49.986;11.618;2023-09-19T13:20:28;23.60;72.40
39925;DHT22;25592;49.986;11.618;2023-09-19T13:23:26;23.70;72.50
39925;DHT22;25592;49.986;11.618;2023-09-19T13:26:12;23.80;71.90
39925;DHT22;25592;49.986;11.618;2023-09-19T13:28:57;23.90;72.30
39925;DHT22;25592;49.986;11.618;2023-09-19T13:31:52;23.90;70.30
39925;DHT22;25592;49.986;11.618;2023-09-19T13:34:40;23.80;68.80
39925;DHT22;25592;49.986;11.618;2023-09-19T13:37:26;23.60;70.20
39925;DHT22;25592;49.986;11.618;2023-09-19T13:40:13;23.90;71.00
39925;DHT22;25592;49.986;11.618;2023-09-19T13:42:59;23.70;69.70
39925;DHT22;25592;49.986;11.618;2023-09-19T13:45:44;23.70;69.00
39925;DHT22;25592;49.986;11.618;2023-09-19T13:48:30;23.60;69.50
39925;DHT22;25592;49.986;11.618;2023-09-19T13:51:15;23.30;69.40
39925;DHT22;25592;49.986;11.618;2023-09-19T13:54:01;23.00;70.60
39925;DHT22;25592;49.986;11.618;2023-09-19T13:56:46;23.20;70.00
39925;DHT22;25592;49.986;11.618;2023-09-19T13:59:32;23.20;70.40
39925;DHT22;25592;49.986;11.618;2023-09-19T14:02:17;23.40;70.00
39925;DHT22;25592;49.986;11.618;2023-09-19T14:05:08;23.30;69.70
39925;DHT22;25592;49.986;11.618;2023-09-19T14:07:54;23.50;69.20
39925;DHT22;25592;49.986;11.618;2023-09-19T14:10:44;23.60;70.10
39925;DHT22;25592;49.986;11.618;2023-09-19T14:13:30;23.90;70.20
39925;DHT22;25592;49.986;11.618;2023-09-19T14:16:16;24.10;69.40
39925;DHT22;25592;49.986;11.618;2023-09-19T14:19:03;24.00;68.80
39925;DHT22;25592;49.986;11.618;2023-09-19T14:21:51;24.00;68.90
39925;DHT22;25592;49.986;11.618;2023-09-19T14:24:36;23.80;69.10
39925;DHT22;25592;49.986;11.618;2023-09-19T14:27:22;23.50;68.80
39925;DHT22;25592;49.986;11.618;2023-09-19T14:30:07;23.20;69.10
39925;DHT22;25592;49.986;11.618;2023-09-19T14:32:54;23.30;69.60
39925;DHT22;25592;49.986;11.618;2023-09-19T14:35:39;23.40;69.40
39925;DHT22;25592;49.986;11.618;2023-09-19T14:38:25;23.60;70.00
39925;DHT22;25592;49.986;11.618;2023-09-19T14:41:11;23.60;69.10
39925;DHT22;25592;49.986;11.618;2023-09-19T14:43:58;23.80;69.60
39925;DHT22;25592;49.986;11.618;2023-09-19T14:46:43;23.90;68.90
39925;DHT22;25592;49.986;11.618;2023-09-19T14:49:33;24.00;68.80
39925;DHT22;25592;49.986;11.618;2023-09-19T14:52:19;23.90;68.40
39925;DHT22;25592;49.986;11.618;2023-09-19T14:55:05;23.90;68.80
39925;DHT22;25592;49.986;11.618;2023-09-19T14:57:51;24.00;69.10
39925;DHT22;25592;49.986;11.618;2023-09-19T15:00:37;23.90;68.30
39925;DHT22;25592;49.986;11.618;2023-09-19T15:03:22;23.80;68.10
39925;DHT22;25592;49.986;11.618;2023-09-19T15:06:12;23.50;68.80
39925;DHT22;25592;49.986;11.618;2023-09-19T15:09:02;23.50;69.50
39925;DHT22;25592;49.986;11.618;2023-09-19T15:11:50;23.80;69.70
39925;DHT22;25592;49.986;11.618;2023-09-19T15:14:36;23.80;69.40
39925;DHT22;25592;49.986;11.618;2023-09-19T15:17:21;23.80;69.40
39925;DHT22;25592;49.986;11.618;2023-09-19T15:20:07;23.90;69.80
39925;DHT22;25592;49.986;11.618;2023-09-19T15:22:53;23.50;69.90
39925;DHT22;25592;49.986;11.618;2023-09-19T15:25:38;23.60;70.40
39925;DHT22;25592;49.986;11.618;2023-09-19T15:28:27;23.60;70.20
39925;DHT22;25592;49.986;11.618;2023-09-19T15:31:13;23.50;70.00
39925;DHT22;25592;49.986;11.618;2023-09-19T15:33:59;23.40;70.30
39925;DHT22;25592;49.986;11.618;2023-09-19T15:36:44;23.40;70.90
39925;DHT22;25592;49.986;11.618;2023-09-19T15:39:30;23.50;70.40
39925;DHT22;25592;49.986;11.618;2023-09-19T15:42:18;23.50;70.80
39925;DHT22;25592;49.986;11.618;2023-09-19T15:45:05;23.40;69.50
39925;DHT22;25592;49.986;11.618;2023-09-19T15:47:50;23.20;70.40
39925;DHT22;25592;49.986;11.618;2023-09-19T15:50:36;23.10;70.60
39925;DHT22;25592;49.986;11.618;2023-09-19T15:53:21;23.10;71.10
39925;DHT22;25592;49.986;11.618;2023-09-19T15:56:07;23.30;71.60
39925;DHT22;25592;49.986;11.618;2023-09-19T15:58:54;23.30;70.90
39925;DHT22;25592;49.986;11.618;2023-09-19T16:01:40;23.40;70.80
39925;DHT22;25592;49.986;11.618;2023-09-19T16:04:26;23.30;70.90
39925;DHT22;25592;49.986;11.618;2023-09-19T16:07:12;23.40;71.00
39925;DHT22;25592;49.986;11.618;2023-09-19T16:09:57;23.30;71.20
39925;DHT22;25592;49.986;11.618;2023-09-19T16:12:45;22.80;71.50
39925;DHT22;25592;49.986;11.618;2023-09-19T16:15:30;22.30;71.50
39925;DHT22;25592;49.986;11.618;2023-09-19T16:18:15;22.00;72.10
39925;DHT22;25592;49.986;11.618;2023-09-19T16:21:05;21.80;73.00
39925;DHT22;25592;49.986;11.618;2023-09-19T16:23:52;21.70;73.20
39925;DHT22;25592;49.986;11.618;2023-09-19T16:26:39;21.70;73.20
39925;DHT22;25592;49.986;11.618;2023-09-19T16:29:24;21.50;73.40
39925;DHT22;25592;49.986;11.618;2023-09-19T16:32:10;21.50;73.60
39925;DHT22;25592;49.986;11.618;2023-09-19T16:34:56;21.40;73.70
39925;DHT22;25592;49.986;11.618;2023-09-19T16:37:41;21.20;74.10
39925;DHT22;25592;49.986;11.618;2023-09-19T16:40:27;21.30;74.50
39925;DHT22;25592;49.986;11.618;2023-09-19T16:43:12;21.30;74.50
39925;DHT22;25592;49.986;11.618;2023-09-19T16:46:00;21.50;74.40
39925;DHT22;25592;49.986;11.618;2023-09-19T16:48:48;21.40;74.40
39925;DHT22;25592;49.986;11.618;2023-09-19T16:51:48;21.40;74.60
39925;DHT22;25592;49.986;11.618;2023-09-19T16:54:33;21.40;74.50
39925;DHT22;25592;49.986;11.618;2023-09-19T16:57:19;21.30;74.80
39925;DHT22;25592;49.986;11.618;2023-09-19T17:00:07;21.50;74.80
39925;DHT22;25592;49.986;11.618;2023-09-19T17:02:53;21.60;75.00
39925;DHT22;25592;49.986;11.618;2023-09-19T17:05:41;21.70;74.70
39925;DHT22;25592;49.986;11.618;2023-09-19T17:08:28;21.70;74.80
39925;DHT22;25592;49.986;11.618;2023-09-19T17:11:15;21.80;74.60
39925;DHT22;25592;49.986;11.618;2023-09-19T17:14:02;21.70;74.40
39925;DHT22;25592;49.986;11.618;2023-09-19T17:16:48;21.70;74.90
39925;DHT22;25592;49.986;11.618;2023-09-19T17:19:34;21.70;74.30
39925;DHT22;25592;49.986;11.618;2023-09-19T17:22:19;21.60;74.40
39925;DHT22;25592;49.986;11.618;2023-09-19T17:25:05;21.60;75.30
39925;DHT22;25592;49.986;11.618;2023-09-19T17:27:52;21.70;75.40
39925;DHT22;25592;49.986;11.618;2023-09-19T17:30:38;21.80;75.60
39925;DHT22;25592;49.986;11.618;2023-09-19T17:33:25;21.80;75.20
39925;DHT22;25592;49.986;11.618;2023-09-19T17:39:01;21.80;76.30
39925;DHT22;25592;49.986;11.618;2023-09-19T17:41:49;21.80;76.10
39925;DHT22;25592;49.986;11.618;2023-09-19T17:44:35;21.70;76.60
39925;DHT22;25592;49.986;11.618;2023-09-19T17:47:21;21.70;76.80